createdAt,value
2022-09-12T00:00:43.296Z,0.7
2022-09-12T00:08:15.686Z,0.7
2022-09-12T00:15:47.957Z,0.7
2022-09-12T00:23:20.230Z,0.8
2022-09-12T00:30:52.657Z,0.7
2022-09-12T00:38:24.970Z,0.7
2022-09-12T00:45:57.281Z,0.5
2022-09-12T00:53:29.584Z,0.5
2022-09-12T01:01:01.935Z,0.6
2022-09-12T01:08:34.285Z,1.0
2022-09-12T01:16:06.641Z,0.7
2022-09-12T01:23:38.984Z,0.6
2022-09-12T01:31:11.284Z,0.8
2022-09-12T01:38:43.587Z,0.7
2022-09-12T01:46:15.909Z,0.7
2022-09-12T01:53:48.176Z,0.7
2022-09-12T02:01:20.486Z,0.7
2022-09-12T02:08:52.779Z,0.6
2022-09-12T02:16:25.079Z,0.8
2022-09-12T02:23:57.393Z,0.4
2022-09-12T02:31:29.771Z,0.4
2022-09-12T02:39:02.053Z,0.4
2022-09-12T02:46:34.349Z,0.5
2022-09-12T02:54:06.639Z,0.5
2022-09-12T03:01:38.937Z,0.9
2022-09-12T03:09:11.208Z,0.2
2022-09-12T03:16:43.527Z,0.3
2022-09-12T03:24:15.820Z,0.7
2022-09-12T03:31:48.154Z,1.1
2022-09-12T03:39:20.421Z,0.4
2022-09-12T03:46:52.731Z,0.6
2022-09-12T03:54:25.007Z,0.9
2022-09-12T04:01:57.350Z,0.8
2022-09-12T04:09:29.790Z,0.6
2022-09-12T04:17:02.066Z,0.5
2022-09-12T04:19:51.541Z,0.5
2022-09-12T04:20:38.828Z,0.9
2022-09-12T04:21:26.085Z,1.0
2022-09-12T04:22:13.391Z,0.9
2022-09-12T04:23:00.648Z,0.9
2022-09-12T04:23:47.900Z,0.7
2022-09-12T04:24:35.159Z,0.5
2022-09-12T04:25:23.083Z,0.8
2022-09-12T04:26:10.598Z,0.4
2022-09-12T04:26:57.884Z,0.7
2022-09-12T04:27:45.154Z,1.0
2022-09-12T04:28:32.462Z,0.9
2022-09-12T04:29:19.741Z,1.0
2022-09-12T04:30:07.005Z,0.8
2022-09-12T04:30:54.337Z,1.6
2022-09-12T04:31:41.646Z,0.6
2022-09-12T04:32:28.947Z,1.2
2022-09-12T04:33:16.282Z,1.3
2022-09-12T04:34:03.541Z,0.8
2022-09-12T04:34:50.820Z,0.7
2022-09-12T04:35:38.121Z,0.8
2022-09-12T04:36:25.383Z,1.3
2022-09-12T04:37:12.647Z,1.2
2022-09-12T04:37:59.989Z,2.0
2022-09-12T04:38:47.328Z,1.2
2022-09-12T04:39:34.598Z,0.7
2022-09-12T04:40:21.907Z,1.2
2022-09-12T04:41:09.168Z,0.8
2022-09-12T04:41:56.458Z,0.7
2022-09-12T04:42:43.750Z,1.2
2022-09-12T04:43:31.032Z,1.0
2022-09-12T04:44:18.313Z,1.2
2022-09-12T04:45:05.584Z,0.9
2022-09-12T04:45:52.911Z,1.0
2022-09-12T04:46:40.216Z,1.2
2022-09-12T04:47:27.514Z,1.0
2022-09-12T04:48:14.792Z,1.0
2022-09-12T04:49:02.072Z,0.9
2022-09-12T04:49:49.344Z,1.0
2022-09-12T04:50:36.608Z,1.6
2022-09-12T04:51:23.878Z,1.4
2022-09-12T04:52:11.156Z,1.5
2022-09-12T04:52:58.418Z,1.3
2022-09-12T04:53:45.685Z,1.5
2022-09-12T04:54:32.981Z,1.4
2022-09-12T04:55:20.431Z,1.4
2022-09-12T04:56:07.717Z,1.3
2022-09-12T04:56:55.037Z,1.0
2022-09-12T04:57:42.302Z,2.2
2022-09-12T04:58:29.565Z,2.0
2022-09-12T04:59:16.853Z,1.9
2022-09-12T05:00:07.239Z,2.5
2022-09-12T05:00:54.784Z,4.8
2022-09-12T05:01:42.124Z,1.9
2022-09-12T05:02:29.434Z,2.4
2022-09-12T05:03:16.892Z,2.1
2022-09-12T05:04:04.157Z,2.6
2022-09-12T05:04:51.415Z,6.8
2022-09-12T05:05:38.688Z,8.1
2022-09-12T05:06:26.133Z,17.6
2022-09-12T05:07:13.450Z,12.4
2022-09-12T05:08:00.725Z,13.1
2022-09-12T05:08:48.168Z,12.3
2022-09-12T05:09:35.436Z,11.6
2022-09-12T05:10:22.715Z,9.1
2022-09-12T05:11:10.143Z,7.2
2022-09-12T05:12:04.187Z,7.0
2022-09-12T05:12:52.116Z,3.6
2022-09-12T05:13:39.540Z,4.1
2022-09-12T05:14:26.820Z,4.4
2022-09-12T05:15:14.085Z,3.3
2022-09-12T05:16:01.503Z,2.9
2022-09-12T05:16:49.766Z,4.1
2022-09-12T05:17:37.176Z,4.0
2022-09-12T05:18:24.589Z,2.7
2022-09-12T05:19:11.855Z,2.7
2022-09-12T05:19:59.116Z,2.2
2022-09-12T05:20:46.565Z,2.0
2022-09-12T05:21:33.841Z,3.6
2022-09-12T05:22:21.144Z,2.2
2022-09-12T05:23:08.550Z,2.7
2022-09-12T05:23:55.811Z,2.6
2022-09-12T05:24:46.184Z,1.5
2022-09-12T05:25:35.990Z,1.5
2022-09-12T05:26:23.272Z,1.5
2022-09-12T05:27:10.537Z,1.8
2022-09-12T05:27:57.813Z,1.7
2022-09-12T05:28:45.207Z,1.7
2022-09-12T05:29:32.475Z,1.5
2022-09-12T05:30:19.748Z,2.3
2022-09-12T05:31:07.152Z,1.6
2022-09-12T05:31:54.410Z,2.7
2022-09-12T05:32:41.683Z,2.5
2022-09-12T05:33:29.079Z,4.5
2022-09-12T05:34:16.389Z,3.3
2022-09-12T05:35:03.653Z,4.4
2022-09-12T05:35:51.056Z,3.4
2022-09-12T05:36:38.320Z,5.3
2022-09-12T05:37:25.596Z,3.2
2022-09-12T05:38:12.988Z,4.2
2022-09-12T05:39:00.255Z,3.1
2022-09-12T05:39:47.559Z,3.4
2022-09-12T05:40:34.940Z,3.4
2022-09-12T05:41:24.987Z,2.6
2022-09-12T05:42:12.517Z,3.5
2022-09-12T05:42:59.954Z,2.7
2022-09-12T05:43:47.215Z,1.7
2022-09-12T05:44:34.474Z,2.9
2022-09-12T05:45:21.926Z,2.3
2022-09-12T05:46:09.213Z,1.8
2022-09-12T05:46:56.489Z,2.4
2022-09-12T05:47:43.917Z,2.4
2022-09-12T05:48:31.184Z,1.3
2022-09-12T05:49:18.444Z,1.6
2022-09-12T05:50:05.869Z,2.0
2022-09-12T05:50:53.137Z,2.2
2022-09-12T05:51:40.410Z,2.1
2022-09-12T05:52:27.815Z,2.1
2022-09-12T05:53:15.081Z,1.3
2022-09-12T05:54:02.355Z,1.9
2022-09-12T05:54:49.797Z,1.8
2022-09-12T05:55:37.048Z,1.8
2022-09-12T05:56:24.320Z,1.3
2022-09-12T05:57:11.747Z,1.6
2022-09-12T05:57:59.008Z,1.6
2022-09-12T05:58:46.312Z,1.2
2022-09-12T05:59:33.701Z,1.5
2022-09-12T06:00:20.970Z,2.1
2022-09-12T06:01:08.274Z,1.3
2022-09-12T06:01:55.813Z,1.1
2022-09-12T06:02:43.092Z,1.1
2022-09-12T06:03:30.353Z,1.5
2022-09-12T06:04:17.785Z,1.7
2022-09-12T06:05:05.052Z,0.9
2022-09-12T06:05:52.309Z,1.2
2022-09-12T06:06:39.749Z,1.8
2022-09-12T06:07:27.015Z,0.9
2022-09-12T06:08:14.277Z,1.3
2022-09-12T06:09:01.703Z,1.0
2022-09-12T06:09:48.972Z,1.2
2022-09-12T06:10:36.242Z,1.2
2022-09-12T06:11:23.639Z,1.0
2022-09-12T06:12:10.897Z,1.5
2022-09-12T06:12:58.185Z,1.0
2022-09-12T06:13:45.555Z,1.0
2022-09-12T06:14:32.824Z,1.3
2022-09-12T06:15:20.090Z,1.9
2022-09-12T06:16:07.497Z,1.7
2022-09-12T06:16:54.819Z,1.3
2022-09-12T06:17:42.164Z,1.7
2022-09-12T06:18:29.604Z,1.2
2022-09-12T06:19:16.872Z,1.9
2022-09-12T06:20:04.128Z,1.4
2022-09-12T06:20:51.527Z,1.4
2022-09-12T06:21:38.791Z,1.2
2022-09-12T06:22:26.060Z,1.2
2022-09-12T06:23:13.449Z,1.3
2022-09-12T06:24:00.729Z,1.6
2022-09-12T06:24:47.993Z,7.5
2022-09-12T06:25:35.380Z,1.1
2022-09-12T06:26:22.825Z,1.9
2022-09-12T06:27:10.089Z,1.2
2022-09-12T06:27:57.516Z,1.7
2022-09-12T06:28:44.826Z,3.5
2022-09-12T06:29:32.132Z,1.8
2022-09-12T06:30:22.334Z,1.5
2022-09-12T06:31:12.597Z,1.2
2022-09-12T06:31:59.928Z,1.3
2022-09-12T06:32:47.334Z,1.7
2022-09-12T06:33:34.597Z,1.8
2022-09-12T06:34:21.989Z,1.4
2022-09-12T06:35:09.310Z,1.1
2022-09-12T06:35:56.729Z,4.2
2022-09-12T06:36:44.003Z,1.4
2022-09-12T06:37:31.268Z,2.1
2022-09-12T06:38:18.565Z,2.5
2022-09-12T06:39:05.933Z,2.4
2022-09-12T06:39:53.209Z,2.9
2022-09-12T06:40:40.483Z,3.8
2022-09-12T06:41:27.885Z,1.7
2022-09-12T06:42:15.165Z,2.3
2022-09-12T06:43:02.436Z,2.0
2022-09-12T06:43:49.843Z,2.1
2022-09-12T06:44:37.113Z,2.0
2022-09-12T06:45:24.382Z,2.6
2022-09-12T06:46:11.882Z,2.9
2022-09-12T06:46:59.194Z,2.6
2022-09-12T06:47:46.473Z,1.6
2022-09-12T06:48:35.077Z,1.8
2022-09-12T06:49:23.708Z,2.4
2022-09-12T06:50:11.035Z,4.2
2022-09-12T06:50:58.303Z,2.6
2022-09-12T06:51:45.619Z,2.0
2022-09-12T06:52:32.891Z,1.8
2022-09-12T06:53:20.175Z,5.6
2022-09-12T06:54:07.455Z,2.5
2022-09-12T06:54:54.795Z,1.8
2022-09-12T06:55:42.213Z,2.2
2022-09-12T06:56:29.473Z,1.5
2022-09-12T06:57:16.801Z,1.1
2022-09-12T06:58:04.069Z,1.6
2022-09-12T06:58:51.340Z,3.7
2022-09-12T06:59:38.658Z,3.2
2022-09-12T07:00:25.943Z,2.6
2022-09-12T07:01:13.295Z,3.5
2022-09-12T07:02:00.654Z,3.8
2022-09-12T07:02:47.967Z,4.0
2022-09-12T07:03:35.231Z,2.9
2022-09-12T07:04:22.528Z,3.3
2022-09-12T07:05:09.781Z,3.9
2022-09-12T07:05:57.045Z,2.3
2022-09-12T07:06:44.338Z,1.8
2022-09-12T07:07:31.595Z,1.5
2022-09-12T07:08:18.940Z,1.2
2022-09-12T07:09:06.246Z,0.9
2022-09-12T07:09:53.709Z,1.4
2022-09-12T07:10:40.976Z,2.0
2022-09-12T07:11:28.268Z,1.8
2022-09-12T07:12:15.793Z,0.9
2022-09-12T07:13:03.057Z,1.0
2022-09-12T07:13:50.354Z,1.6
2022-09-12T07:14:37.667Z,1.6
2022-09-12T07:15:24.936Z,1.3
2022-09-12T07:16:16.018Z,1.9
2022-09-12T07:17:06.107Z,2.2
2022-09-12T07:17:53.480Z,2.1
2022-09-12T07:18:40.749Z,1.9
2022-09-12T07:19:28.048Z,2.2
2022-09-12T07:20:15.411Z,3.9
2022-09-12T07:21:02.884Z,3.9
2022-09-12T07:21:50.305Z,3.1
2022-09-12T07:22:37.568Z,3.2
2022-09-12T07:23:24.837Z,2.2
2022-09-12T07:24:12.455Z,3.7
2022-09-12T07:24:59.724Z,1.5
2022-09-12T07:25:46.994Z,1.6
2022-09-12T07:26:34.252Z,1.6
2022-09-12T07:27:21.695Z,1.8
2022-09-12T07:28:08.965Z,1.8
2022-09-12T07:29:03.962Z,2.9
2022-09-12T07:29:53.482Z,1.2
2022-09-12T07:30:40.923Z,1.7
2022-09-12T07:31:28.211Z,3.6
2022-09-12T07:32:15.511Z,2.0
2022-09-12T07:33:02.872Z,2.6
2022-09-12T07:33:53.833Z,2.2
2022-09-12T07:34:42.081Z,2.7
2022-09-12T07:35:29.341Z,2.5
2022-09-12T07:36:16.636Z,2.6
2022-09-12T07:37:03.910Z,5.0
2022-09-12T07:37:51.358Z,2.9
2022-09-12T07:38:38.622Z,2.3
2022-09-12T07:39:26.037Z,2.7
2022-09-12T07:40:13.365Z,2.3
2022-09-12T07:41:00.644Z,3.8
2022-09-12T07:41:47.950Z,2.1
2022-09-12T07:42:35.334Z,2.8
2022-09-12T07:43:22.599Z,3.6
2022-09-12T07:44:09.893Z,2.6
2022-09-12T07:44:57.293Z,2.1
2022-09-12T07:45:44.598Z,3.0
2022-09-12T07:46:31.892Z,2.8
2022-09-12T07:47:19.312Z,3.7
2022-09-12T07:48:06.572Z,4.4
2022-09-12T07:48:53.841Z,3.7
2022-09-12T07:49:41.246Z,3.0
2022-09-12T07:50:28.517Z,5.1
2022-09-12T07:51:15.789Z,4.2
2022-09-12T07:52:03.207Z,3.6
2022-09-12T07:52:50.512Z,4.7
2022-09-12T07:53:37.751Z,3.8
2022-09-12T07:54:25.181Z,3.5
2022-09-12T07:55:12.473Z,3.4
2022-09-12T07:55:59.753Z,5.7
2022-09-12T07:56:47.145Z,3.6
2022-09-12T07:57:34.414Z,3.0
2022-09-12T07:58:21.700Z,3.1
2022-09-12T07:59:09.090Z,4.0
2022-09-12T07:59:56.362Z,5.4
2022-09-12T08:00:43.632Z,2.8
2022-09-12T08:01:31.130Z,2.7
2022-09-12T08:02:18.547Z,2.9
2022-09-12T08:03:05.848Z,3.0
2022-09-12T08:03:53.252Z,3.8
2022-09-12T08:04:40.520Z,3.0
2022-09-12T08:05:27.792Z,2.6
2022-09-12T08:06:15.202Z,4.7
2022-09-12T08:07:02.455Z,5.0
2022-09-12T08:07:49.738Z,3.7
2022-09-12T08:08:37.132Z,4.5
2022-09-12T08:09:24.411Z,5.9
2022-09-12T08:10:11.676Z,9.0
2022-09-12T08:10:59.083Z,14.6
2022-09-12T08:11:46.352Z,12.1
2022-09-12T08:12:33.629Z,17.9
2022-09-12T08:13:21.289Z,16.2
2022-09-12T08:14:08.590Z,17.8
2022-09-12T08:14:55.883Z,12.4
2022-09-12T08:15:43.344Z,11.6
2022-09-12T08:16:30.643Z,11.6
2022-09-12T08:17:17.929Z,9.2
2022-09-12T08:18:05.361Z,10.1
2022-09-12T08:18:52.625Z,8.9
2022-09-12T08:19:39.892Z,11.7
2022-09-12T08:20:28.463Z,9.9
2022-09-12T08:21:15.877Z,5.1
2022-09-12T08:22:03.341Z,6.4
2022-09-12T08:22:50.614Z,6.7
2022-09-12T08:23:37.884Z,6.8
2022-09-12T08:24:25.213Z,4.3
2022-09-12T08:25:12.626Z,4.5
2022-09-12T08:26:03.087Z,7.7
2022-09-12T08:26:52.649Z,4.1
2022-09-12T08:27:40.041Z,3.6
2022-09-12T08:28:27.510Z,3.4
2022-09-12T08:29:14.796Z,3.4
2022-09-12T08:30:02.283Z,2.2
2022-09-12T08:30:49.607Z,3.0
2022-09-12T08:31:36.924Z,3.3
2022-09-12T08:32:24.351Z,16.8
2022-09-12T08:33:11.644Z,12.0
2022-09-12T08:33:58.940Z,5.5
2022-09-12T08:34:46.360Z,2.8
2022-09-12T08:35:33.652Z,3.9
2022-09-12T08:36:20.944Z,2.5
2022-09-12T08:37:08.397Z,3.1
2022-09-12T08:37:55.660Z,2.7
2022-09-12T08:38:42.925Z,5.5
2022-09-12T08:39:30.621Z,4.4
2022-09-12T08:40:17.905Z,4.5
2022-09-12T08:41:05.183Z,4.7
2022-09-12T08:41:52.611Z,4.6
2022-09-12T08:42:39.888Z,6.3
2022-09-12T08:43:27.180Z,8.0
2022-09-12T08:44:14.611Z,5.8
2022-09-12T08:45:01.898Z,4.4
2022-09-12T08:45:49.210Z,3.8
2022-09-12T08:46:36.601Z,4.1
2022-09-12T08:47:23.895Z,17.7
2022-09-12T08:48:11.159Z,11.8
2022-09-12T08:48:58.608Z,6.3
2022-09-12T08:49:45.869Z,6.3
2022-09-12T08:50:33.138Z,6.0
2022-09-12T08:51:20.574Z,4.9
2022-09-12T08:52:07.843Z,4.8
2022-09-12T08:52:55.107Z,3.5
2022-09-12T08:53:42.597Z,3.8
2022-09-12T08:54:29.878Z,5.5
2022-09-12T08:55:17.158Z,10.5
2022-09-12T08:56:04.581Z,7.1
2022-09-12T08:56:51.843Z,5.3
2022-09-12T08:57:39.107Z,4.7
2022-09-12T08:58:26.545Z,7.0
2022-09-12T08:59:13.857Z,4.8
2022-09-12T09:00:01.145Z,3.2
2022-09-12T09:00:48.544Z,6.4
2022-09-12T09:01:35.877Z,4.0
2022-09-12T09:02:23.258Z,4.7
2022-09-12T09:03:10.663Z,5.6
2022-09-12T09:03:57.935Z,3.6
2022-09-12T09:04:45.229Z,4.4
2022-09-12T09:05:32.616Z,5.7
2022-09-12T09:06:19.884Z,4.1
2022-09-12T09:07:07.148Z,4.5
2022-09-12T09:07:54.554Z,5.8
2022-09-12T09:08:41.834Z,7.0
2022-09-12T09:09:31.957Z,7.3
2022-09-12T09:10:19.348Z,4.3
2022-09-12T09:11:06.668Z,4.0
2022-09-12T09:11:53.937Z,4.8
2022-09-12T09:12:41.205Z,4.1
2022-09-12T09:13:28.640Z,2.7
2022-09-12T09:14:15.942Z,4.3
2022-09-12T09:15:03.269Z,2.7
2022-09-12T09:15:50.758Z,3.6
2022-09-12T09:16:38.059Z,2.4
2022-09-12T09:17:25.434Z,2.6
2022-09-12T09:18:12.751Z,3.0
2022-09-12T09:19:00.023Z,2.5
2022-09-12T09:19:50.662Z,5.3
2022-09-12T09:20:38.332Z,4.1
2022-09-12T09:21:25.746Z,3.8
2022-09-12T09:22:13.037Z,5.1
2022-09-12T09:23:00.296Z,5.8
2022-09-12T09:23:47.736Z,5.3
2022-09-12T09:24:35.021Z,5.2
2022-09-12T09:25:23.114Z,4.5
2022-09-12T09:26:10.492Z,7.7
2022-09-12T09:26:57.798Z,4.3
2022-09-12T09:27:45.056Z,6.5
2022-09-12T09:28:32.569Z,4.0
2022-09-12T09:29:19.838Z,4.8
2022-09-12T09:30:07.125Z,3.5
2022-09-12T09:30:54.435Z,4.8
2022-09-12T09:31:41.797Z,4.4
2022-09-12T09:32:29.103Z,5.4
2022-09-12T09:33:16.368Z,5.4
2022-09-12T09:34:03.765Z,3.4
2022-09-12T09:34:51.032Z,9.8
2022-09-12T09:35:38.305Z,5.2
2022-09-12T09:36:25.693Z,7.7
2022-09-12T09:37:12.971Z,7.6
2022-09-12T09:38:00.305Z,7.6
2022-09-12T09:38:47.795Z,29.8
2022-09-12T09:39:35.220Z,6.9
2022-09-12T09:40:22.726Z,8.1
2022-09-12T09:41:10.027Z,6.9
2022-09-12T09:41:57.283Z,8.7
2022-09-12T09:42:44.561Z,7.9
2022-09-12T09:43:32.044Z,7.5
2022-09-12T09:44:19.333Z,5.4
2022-09-12T09:45:06.613Z,6.3
2022-09-12T09:45:54.093Z,7.7
2022-09-12T09:46:41.472Z,7.7
2022-09-12T09:47:28.804Z,5.5
2022-09-12T09:48:16.220Z,5.8
2022-09-12T09:49:03.506Z,12.0
2022-09-12T09:49:50.776Z,4.4
2022-09-12T09:50:38.183Z,4.2
2022-09-12T09:51:25.451Z,7.2
2022-09-12T09:52:12.721Z,6.2
2022-09-12T09:53:00.134Z,6.1
2022-09-12T09:53:47.405Z,5.3
2022-09-12T09:54:34.697Z,5.8
2022-09-12T09:55:22.263Z,8.5
2022-09-12T09:56:09.528Z,5.3
2022-09-12T09:56:56.817Z,7.1
2022-09-12T09:57:44.209Z,8.9
2022-09-12T09:58:31.481Z,7.8
2022-09-12T09:59:18.796Z,6.0
2022-09-12T10:00:06.158Z,4.0
2022-09-12T10:00:56.577Z,7.2
2022-09-12T10:01:44.161Z,4.4
2022-09-12T10:02:31.528Z,4.2
2022-09-12T10:03:18.874Z,4.0
2022-09-12T10:04:06.404Z,3.4
2022-09-12T10:04:53.676Z,2.4
2022-09-12T10:05:41.008Z,2.0
2022-09-12T10:06:28.276Z,2.2
2022-09-12T10:07:15.674Z,2.8
2022-09-12T10:08:03.059Z,2.8
2022-09-12T10:08:50.335Z,2.3
2022-09-12T10:09:37.732Z,2.3
2022-09-12T10:10:24.988Z,2.4
2022-09-12T10:11:12.271Z,2.3
2022-09-12T10:11:59.681Z,1.9
2022-09-12T10:12:46.948Z,1.9
2022-09-12T10:20:21.829Z,1.7
2022-09-12T10:27:54.425Z,3.0
2022-09-12T10:35:26.719Z,1.9
2022-09-12T10:42:59.058Z,1.4
2022-09-12T10:50:31.350Z,1.9
2022-09-12T10:54:40.864Z,1.9
2022-09-12T10:55:28.165Z,0.8
2022-09-12T10:56:15.473Z,1.8
2022-09-12T10:57:02.776Z,1.4
2022-09-12T10:57:50.077Z,0.7
2022-09-12T10:58:37.366Z,1.7
2022-09-12T10:59:24.777Z,1.1
2022-09-12T11:00:12.044Z,1.1
2022-09-12T11:00:59.324Z,3.6
2022-09-12T11:01:46.609Z,2.0
2022-09-12T11:02:33.937Z,2.0
2022-09-12T11:03:21.224Z,2.0
2022-09-12T11:04:08.494Z,1.5
2022-09-12T11:04:55.804Z,4.3
2022-09-12T11:05:43.074Z,2.8
2022-09-12T11:06:30.339Z,4.4
2022-09-12T11:07:17.665Z,14.2
2022-09-12T11:08:04.937Z,6.4
2022-09-12T11:08:52.371Z,5.7
2022-09-12T11:09:39.657Z,8.3
2022-09-12T11:10:26.929Z,5.8
2022-09-12T11:11:14.228Z,13.1
2022-09-12T11:12:01.554Z,10.9
2022-09-12T11:12:48.848Z,5.3
2022-09-12T11:13:36.193Z,4.8
2022-09-12T11:14:23.493Z,4.9
2022-09-12T11:15:10.783Z,3.5
2022-09-12T11:15:58.093Z,2.5
2022-09-12T11:16:45.437Z,2.7
2022-09-12T11:17:32.717Z,2.3
2022-09-12T11:18:20.005Z,2.6
2022-09-12T11:19:07.310Z,1.8
2022-09-12T11:19:54.610Z,1.5
2022-09-12T11:20:41.884Z,2.6
2022-09-12T11:21:29.182Z,1.6
2022-09-12T11:22:16.488Z,1.9
2022-09-12T11:23:03.764Z,1.2
2022-09-12T11:23:51.065Z,2.0
2022-09-12T11:24:38.495Z,1.4
2022-09-12T11:25:25.779Z,1.3
2022-09-12T11:26:13.082Z,1.3
2022-09-12T11:27:00.361Z,1.4
2022-09-12T11:27:47.637Z,2.1
2022-09-12T11:28:34.932Z,1.5
2022-09-12T11:29:22.208Z,1.5
2022-09-12T11:30:09.464Z,1.2
2022-09-12T11:30:56.856Z,1.5
2022-09-12T11:31:44.152Z,0.9
2022-09-12T11:32:31.453Z,1.7
2022-09-12T11:33:18.761Z,2.1
2022-09-12T11:34:06.007Z,1.4
2022-09-12T11:34:53.295Z,1.7
2022-09-12T11:35:40.726Z,1.8
2022-09-12T11:36:28.005Z,1.3
2022-09-12T11:37:18.096Z,1.1
2022-09-12T11:38:05.547Z,1.6
2022-09-12T11:38:53.006Z,1.7
2022-09-12T11:39:40.331Z,2.2
2022-09-12T11:40:27.774Z,1.5
2022-09-12T11:41:15.132Z,1.6
2022-09-12T11:42:02.407Z,1.5
2022-09-12T11:42:49.650Z,1.7
2022-09-12T11:43:37.097Z,2.1
2022-09-12T11:44:24.367Z,2.7
2022-09-12T11:45:11.637Z,2.2
2022-09-12T11:45:59.127Z,1.7
2022-09-12T11:46:49.926Z,1.8
2022-09-12T11:47:39.073Z,2.2
2022-09-12T11:48:26.292Z,3.6
2022-09-12T11:49:13.570Z,1.5
2022-09-12T11:50:00.867Z,1.1
2022-09-12T11:50:48.305Z,1.3
2022-09-12T11:51:35.595Z,2.4
2022-09-12T11:52:22.924Z,3.4
2022-09-12T11:53:10.274Z,2.4
2022-09-12T11:53:57.540Z,2.2
2022-09-12T11:54:44.810Z,2.0
2022-09-12T11:55:32.230Z,1.5
2022-09-12T11:56:19.501Z,1.3
2022-09-12T11:57:06.781Z,1.8
2022-09-12T11:57:54.164Z,2.1
2022-09-12T11:58:41.500Z,1.6
2022-09-12T11:59:28.788Z,1.6
2022-09-12T12:00:16.156Z,1.8
2022-09-12T12:01:03.414Z,1.4
2022-09-12T12:01:50.692Z,2.1
2022-09-12T12:02:38.116Z,1.6
2022-09-12T12:03:25.429Z,1.4
2022-09-12T12:04:12.708Z,1.7
2022-09-12T12:05:00.107Z,1.2
2022-09-12T12:05:47.396Z,2.5
2022-09-12T12:06:34.662Z,1.8
2022-09-12T12:07:22.083Z,2.4
2022-09-12T12:08:09.363Z,7.8
2022-09-12T12:08:56.648Z,4.2
2022-09-12T12:09:44.059Z,3.9
2022-09-12T12:10:31.415Z,2.9
2022-09-12T12:11:18.937Z,1.5
2022-09-12T12:12:06.252Z,1.5
2022-09-12T12:12:53.522Z,1.5
2022-09-12T12:13:40.803Z,1.7
2022-09-12T12:14:28.215Z,1.8
2022-09-12T12:15:15.518Z,1.6
2022-09-12T12:16:02.870Z,1.2
2022-09-12T12:16:50.214Z,1.5
2022-09-12T12:17:37.498Z,1.2
2022-09-12T12:18:24.768Z,1.7
2022-09-12T12:19:12.220Z,2.1
2022-09-12T12:20:04.290Z,1.1
2022-09-12T12:20:53.902Z,1.0
2022-09-12T12:21:41.303Z,2.6
2022-09-12T12:22:28.573Z,1.4
2022-09-12T12:23:15.842Z,0.9
2022-09-12T12:24:03.366Z,1.3
2022-09-12T12:24:50.650Z,2.3
2022-09-12T12:25:37.917Z,1.3
2022-09-12T12:26:25.361Z,1.8
2022-09-12T12:27:12.633Z,1.2
2022-09-12T12:27:59.921Z,1.1
2022-09-12T12:28:47.417Z,1.2
2022-09-12T12:29:34.820Z,1.0
2022-09-12T12:30:22.125Z,1.1
2022-09-12T12:31:09.554Z,1.0
2022-09-12T12:31:56.884Z,1.0
2022-09-12T12:32:44.148Z,0.8
2022-09-12T12:33:31.590Z,0.9
2022-09-12T12:34:18.894Z,1.3
2022-09-12T12:35:06.176Z,1.1
2022-09-12T12:35:53.604Z,0.5
2022-09-12T12:36:40.866Z,1.4
2022-09-12T12:37:28.117Z,1.1
2022-09-12T12:38:15.577Z,0.6
2022-09-12T12:39:02.860Z,0.8
2022-09-12T12:39:50.199Z,1.4
2022-09-12T12:40:37.538Z,1.1
2022-09-12T12:41:24.822Z,1.8
2022-09-12T12:42:15.905Z,3.4
2022-09-12T12:43:06.088Z,2.5
2022-09-12T12:43:53.511Z,2.0
2022-09-12T12:44:41.568Z,1.7
2022-09-12T12:45:28.879Z,12.4
2022-09-12T12:46:16.349Z,5.1
2022-09-12T12:47:03.724Z,2.1
2022-09-12T12:47:51.261Z,1.2
2022-09-12T12:48:38.590Z,0.7
2022-09-12T12:49:25.949Z,0.8
2022-09-12T12:50:13.225Z,1.1
2022-09-12T12:51:00.655Z,1.2
2022-09-12T12:51:47.937Z,1.1
2022-09-12T12:52:35.229Z,1.8
2022-09-12T12:53:22.629Z,1.1
2022-09-12T12:54:12.959Z,1.4
2022-09-12T12:55:00.614Z,1.9
2022-09-12T12:55:47.915Z,9.4
2022-09-12T12:56:35.207Z,5.5
2022-09-12T12:57:22.483Z,7.5
2022-09-12T12:58:09.909Z,5.0
2022-09-12T12:58:57.178Z,2.3
2022-09-12T12:59:44.449Z,2.0
2022-09-12T13:00:32.080Z,1.4
2022-09-12T13:01:19.410Z,1.1
2022-09-12T13:02:06.743Z,1.3
2022-09-12T13:02:54.202Z,2.5
2022-09-12T13:03:41.589Z,1.0
2022-09-12T13:04:28.869Z,2.0
2022-09-12T13:05:16.290Z,7.7
2022-09-12T13:06:03.568Z,1.7
2022-09-12T13:06:50.842Z,7.0
2022-09-12T13:07:38.272Z,1.8
2022-09-12T13:08:25.543Z,1.3
2022-09-12T13:09:12.808Z,0.6
2022-09-12T13:10:00.416Z,0.9
2022-09-12T13:10:48.516Z,1.0
2022-09-12T13:11:35.845Z,1.2
2022-09-12T13:12:23.266Z,0.8
2022-09-12T13:13:10.536Z,1.0
2022-09-12T13:13:57.816Z,9.9
2022-09-12T13:14:45.276Z,3.9
2022-09-12T13:15:32.620Z,8.9
2022-09-12T13:16:19.982Z,7.2
2022-09-12T13:17:07.365Z,2.3
2022-09-12T13:17:54.637Z,1.9
2022-09-12T13:18:41.970Z,1.7
2022-09-12T13:19:29.350Z,1.0
2022-09-12T13:20:27.777Z,1.4
2022-09-12T13:21:13.894Z,1.1
2022-09-12T13:22:01.358Z,0.8
2022-09-12T13:22:48.626Z,1.3
2022-09-12T13:23:35.913Z,1.4
2022-09-12T13:24:23.292Z,1.0
2022-09-12T13:25:10.549Z,0.9
2022-09-12T13:25:57.842Z,0.7
2022-09-12T13:26:45.790Z,0.9
2022-09-12T13:27:33.256Z,0.5
2022-09-12T13:28:20.538Z,0.6
2022-09-12T13:29:07.813Z,1.4
2022-09-12T13:29:55.142Z,1.4
2022-09-12T13:30:42.453Z,1.6
2022-09-12T13:31:29.821Z,1.1
2022-09-12T13:32:17.194Z,0.5
2022-09-12T13:33:04.461Z,0.9
2022-09-12T13:33:51.733Z,1.0
2022-09-12T13:34:39.140Z,0.7
2022-09-12T13:35:26.404Z,0.9
2022-09-12T13:36:13.671Z,1.2
2022-09-12T13:37:01.116Z,0.8
2022-09-12T13:37:51.370Z,0.6
2022-09-12T13:38:38.820Z,0.7
2022-09-12T13:39:26.243Z,0.6
2022-09-12T13:40:13.569Z,1.1
2022-09-12T13:41:00.855Z,0.9
2022-09-12T13:41:48.313Z,0.6
2022-09-12T13:42:35.589Z,0.8
2022-09-12T13:43:22.887Z,0.8
2022-09-12T13:44:10.277Z,1.3
2022-09-12T13:44:57.537Z,0.9
2022-09-12T13:45:44.803Z,0.8
2022-09-12T13:46:32.277Z,1.3
2022-09-12T13:47:19.581Z,1.4
2022-09-12T13:48:06.930Z,3.8
2022-09-12T13:48:54.283Z,7.4
2022-09-12T13:49:41.561Z,3.4
2022-09-12T13:50:28.828Z,2.3
2022-09-12T13:51:16.254Z,2.5
2022-09-12T13:52:03.535Z,4.0
2022-09-12T13:52:50.825Z,4.7
2022-09-12T13:53:38.242Z,4.0
2022-09-12T13:54:25.515Z,2.7
2022-09-12T13:55:12.808Z,2.1
2022-09-12T13:56:00.230Z,1.8
2022-09-12T13:56:47.499Z,1.4
2022-09-12T13:57:34.779Z,1.6
2022-09-12T13:58:22.191Z,1.2
2022-09-12T13:59:09.474Z,1.5
2022-09-12T13:59:56.734Z,1.2
2022-09-12T14:00:44.136Z,1.0
2022-09-12T14:01:31.438Z,0.4
2022-09-12T14:02:18.775Z,1.1
2022-09-12T14:03:06.137Z,2.5
2022-09-12T14:03:58.062Z,2.8
2022-09-12T14:04:46.049Z,1.4
2022-09-12T14:05:33.430Z,1.3
2022-09-12T14:06:20.697Z,1.9
2022-09-12T14:07:07.976Z,1.8
2022-09-12T14:07:55.388Z,2.8
2022-09-12T14:08:42.657Z,3.3
2022-09-12T14:09:29.929Z,1.8
2022-09-12T14:10:17.400Z,1.9
2022-09-12T14:11:04.693Z,1.7
2022-09-12T14:11:51.959Z,1.2
2022-09-12T14:12:39.349Z,1.9
2022-09-12T14:13:26.625Z,2.0
2022-09-12T14:14:13.897Z,1.5
2022-09-12T14:15:01.314Z,0.8
2022-09-12T14:15:48.884Z,1.6
2022-09-12T14:16:36.190Z,1.4
2022-09-12T14:17:23.871Z,0.9
2022-09-12T14:18:11.181Z,1.7
2022-09-12T14:18:58.445Z,3.7
2022-09-12T14:19:45.994Z,1.1
2022-09-12T14:20:33.476Z,1.3
2022-09-12T14:21:20.798Z,0.6
2022-09-12T14:22:08.173Z,1.0
2022-09-12T14:22:55.440Z,1.1
2022-09-12T14:23:42.717Z,1.1
2022-09-12T14:24:30.170Z,1.7
2022-09-12T14:25:17.432Z,1.2
2022-09-12T14:26:04.706Z,2.1
2022-09-12T14:26:52.129Z,1.4
2022-09-12T14:27:39.384Z,1.0
2022-09-12T14:28:26.666Z,1.2
2022-09-12T14:29:14.071Z,1.6
2022-09-12T14:30:01.344Z,1.6
2022-09-12T14:30:48.660Z,1.3
2022-09-12T14:31:36.041Z,1.1
2022-09-12T14:32:23.325Z,0.6
2022-09-12T14:33:10.591Z,1.5
2022-09-12T14:33:58.000Z,1.9
2022-09-12T14:34:45.692Z,1.6
2022-09-12T14:35:32.970Z,1.4
2022-09-12T14:36:20.357Z,1.5
2022-09-12T14:37:07.620Z,1.0
2022-09-12T14:37:54.881Z,1.1
2022-09-12T14:38:42.336Z,1.7
2022-09-12T14:39:29.636Z,1.6
2022-09-12T14:40:16.960Z,1.0
2022-09-12T14:41:04.306Z,1.5
2022-09-12T14:41:51.589Z,1.0
2022-09-12T14:42:38.853Z,1.0
2022-09-12T14:43:26.281Z,1.7
2022-09-12T14:44:13.550Z,1.2
2022-09-12T14:45:00.827Z,1.1
2022-09-12T14:45:48.216Z,1.3
2022-09-12T14:46:35.513Z,1.5
2022-09-12T14:47:22.846Z,1.4
2022-09-12T14:48:10.213Z,1.1
2022-09-12T14:48:57.522Z,1.5
2022-09-12T14:49:44.793Z,0.9
2022-09-12T14:50:32.225Z,1.5
2022-09-12T14:51:19.502Z,1.0
2022-09-12T14:52:06.793Z,1.2
2022-09-12T14:52:54.192Z,1.2
2022-09-12T14:53:41.456Z,1.5
2022-09-12T14:54:28.725Z,1.0
2022-09-12T14:55:16.173Z,1.4
2022-09-12T14:56:03.452Z,1.1
2022-09-12T14:56:50.713Z,1.3
2022-09-12T14:57:38.158Z,1.2
2022-09-12T14:58:25.423Z,1.9
2022-09-12T14:59:12.716Z,1.1
2022-09-12T15:00:00.300Z,1.4
2022-09-12T15:00:47.578Z,2.1
2022-09-12T15:01:34.954Z,1.5
2022-09-12T15:02:22.709Z,3.5
2022-09-12T15:03:10.162Z,1.0
2022-09-12T15:03:57.931Z,1.0
2022-09-12T15:04:45.687Z,1.4
2022-09-12T15:12:18.021Z,1.6
2022-09-12T15:19:50.302Z,2.4
2022-09-12T15:27:22.576Z,1.2
2022-09-12T15:34:54.987Z,1.5
2022-09-12T15:42:27.267Z,1.6
2022-09-12T15:49:59.570Z,1.5
2022-09-12T15:57:31.856Z,1.4
2022-09-12T16:05:04.129Z,1.2
2022-09-12T16:12:36.410Z,0.9
2022-09-12T16:20:08.678Z,0.8
2022-09-12T16:27:40.961Z,1.1
2022-09-12T16:35:13.633Z,1.3
2022-09-12T16:42:45.918Z,0.9
2022-09-12T16:50:18.212Z,1.1
2022-09-12T16:57:50.480Z,1.1
2022-09-12T17:05:22.804Z,0.8
2022-09-12T17:12:55.080Z,1.2
2022-09-12T17:20:27.357Z,0.7
2022-09-12T17:27:59.625Z,1.0
2022-09-12T17:35:31.904Z,0.6
2022-09-12T17:43:04.182Z,0.6
2022-09-12T17:50:39.302Z,1.1